createdAt,value
2019-04-14T00:01:02.284Z,64.57
2019-04-14T00:03:32.534Z,64.81
2019-04-14T00:06:02.726Z,64.91
2019-04-14T00:08:31.254Z,65.15
2019-04-14T00:10:59.819Z,65.16
2019-04-14T00:13:28.547Z,65.78
2019-04-14T00:15:58.900Z,65.71
2019-04-14T00:18:29.577Z,65.58
2019-04-14T00:20:57.973Z,65.51
2019-04-14T00:23:26.369Z,64.99
2019-04-14T00:25:54.766Z,65.09
2019-04-14T00:28:23.229Z,65.06
2019-04-14T00:30:51.635Z,65.44
2019-04-14T00:33:28.110Z,65.60
2019-04-14T00:36:04.497Z,65.80
2019-04-14T00:38:34.668Z,66.38
2019-04-14T00:41:07.565Z,66.29
2019-04-14T00:43:43.987Z,66.49
2019-04-14T00:46:21.057Z,66.32
2019-04-14T00:48:52.032Z,66.26
2019-04-14T00:51:22.973Z,66.70
2019-04-14T00:53:51.383Z,67.18
2019-04-14T00:56:19.774Z,66.54
2019-04-14T00:58:52.035Z,67.09
2019-04-14T01:01:24.275Z,67.57
2019-04-14T01:03:50.527Z,67.92
2019-04-14T01:06:19.121Z,68.11
2019-04-14T01:08:47.495Z,67.74
2019-04-14T01:11:16.042Z,68.02
2019-04-14T01:13:44.386Z,68.96
2019-04-14T01:16:19.864Z,68.96
2019-04-14T01:18:45.116Z,68.88
2019-04-14T01:21:13.616Z,69.76
2019-04-14T01:23:41.989Z,69.85
2019-04-14T01:26:11.667Z,69.63
2019-04-14T01:28:40.142Z,69.14
2019-04-14T01:31:09.762Z,69.01
2019-04-14T01:33:38.209Z,69.17
2019-04-14T01:36:06.619Z,69.19
2019-04-14T01:38:35.006Z,68.85
2019-04-14T01:41:04.253Z,69.58
2019-04-14T01:43:34.093Z,69.34
2019-04-14T01:46:11.700Z,69.69
2019-04-14T01:48:32.702Z,70.05
2019-04-14T01:51:20.947Z,69.93
2019-04-14T01:53:51.087Z,70.33
2019-04-14T01:56:30.212Z,70.26
2019-04-14T01:59:02.857Z,70.71
2019-04-14T02:01:32.918Z,70.42
2019-04-14T02:04:01.324Z,69.79
2019-04-14T02:06:29.733Z,69.79
2019-04-14T02:08:58.955Z,69.65
2019-04-14T02:11:27.399Z,69.29
2019-04-14T02:13:57.131Z,69.24
2019-04-14T02:16:32.736Z,68.75
2019-04-14T02:18:56.901Z,69.25
2019-04-14T02:21:26.063Z,68.35
2019-04-14T02:23:58.348Z,68.75
2019-04-14T02:26:26.169Z,68.89
2019-04-14T02:28:55.045Z,69.56
2019-04-14T02:31:45.333Z,69.16
2019-04-14T02:34:27.679Z,69.09
2019-04-14T02:39:22.503Z,69.78
2019-04-14T02:42:00.559Z,69.78
2019-04-14T02:44:27.595Z,69.92
2019-04-14T02:49:19.167Z,69.94
2019-04-14T02:51:50.062Z,70.02
2019-04-14T02:54:22.956Z,70.11
2019-04-14T02:56:52.500Z,70.37
2019-04-14T02:59:22.882Z,70.37
2019-04-14T03:02:03.456Z,70.68
2019-04-14T03:04:18.747Z,70.29
2019-04-14T03:06:56.389Z,70.51
2019-04-14T03:09:34.703Z,70.56
2019-04-14T03:11:51.843Z,70.62
2019-04-14T03:14:21.452Z,71.19
2019-04-14T03:17:07.379Z,70.78
2019-04-14T03:19:41.145Z,70.79
2019-04-14T03:22:19.939Z,70.51
2019-04-14T03:24:37.423Z,70.34
2019-04-14T03:27:26.607Z,70.87
2019-04-14T03:29:58.327Z,71.47
2019-04-14T03:35:16.493Z,70.72
2019-04-14T03:39:51.833Z,71.00
2019-04-14T03:42:28.857Z,70.74
2019-04-14T03:44:56.502Z,70.62
2019-04-14T03:47:28.598Z,70.89
2019-04-14T03:50:00.435Z,71.13
2019-04-14T03:52:31.934Z,71.21
2019-04-14T03:54:52.838Z,70.85
2019-04-14T03:57:02.001Z,71.23
2019-04-14T03:59:30.446Z,70.67
2019-04-14T04:01:58.828Z,70.67
2019-04-14T04:04:27.518Z,71.14
2019-04-14T04:06:57.347Z,71.14
2019-04-14T04:09:27.856Z,70.98
2019-04-14T04:11:56.446Z,70.98
2019-04-14T04:14:25.450Z,71.00
2019-04-14T04:17:01.711Z,71.52
2019-04-14T04:19:31.760Z,71.37
2019-04-14T04:22:17.970Z,71.29
2019-04-14T04:24:50.502Z,71.38
2019-04-14T04:27:32.964Z,71.83
2019-04-14T04:30:06.000Z,71.83
2019-04-14T04:32:51.552Z,71.81
2019-04-14T04:35:34.799Z,71.27
2019-04-14T04:38:12.359Z,71.45
2019-04-14T04:40:41.762Z,71.11
2019-04-14T04:43:10.297Z,70.93
2019-04-14T04:45:38.749Z,70.55
2019-04-14T04:48:07.096Z,70.47
2019-04-14T04:50:36.729Z,69.97
2019-04-14T04:53:05.311Z,70.31
2019-04-14T04:55:35.140Z,70.28
2019-04-14T04:58:05.627Z,70.14
2019-04-14T05:00:35.350Z,69.87
2019-04-14T05:03:03.825Z,69.88
2019-04-14T05:06:07.429Z,69.81
2019-04-14T05:08:39.135Z,69.60
2019-04-14T05:11:09.695Z,69.55
2019-04-14T05:13:38.717Z,69.64
2019-04-14T05:16:08.550Z,69.39
2019-04-14T05:18:37.759Z,69.33
2019-04-14T05:21:06.310Z,69.21
2019-04-14T05:23:34.683Z,69.10
2019-04-14T05:26:03.062Z,68.76
2019-04-14T05:28:31.473Z,69.22
2019-04-14T05:31:03.240Z,68.22
2019-04-14T05:33:31.403Z,67.97
2019-04-14T05:36:00.005Z,67.38
2019-04-14T05:38:32.602Z,66.63
2019-04-14T05:41:02.677Z,66.21
2019-04-14T05:43:40.570Z,65.69
2019-04-14T05:46:05.590Z,65.23
2019-04-14T05:48:33.741Z,64.73
2019-04-14T05:51:02.266Z,64.41
2019-04-14T05:53:32.717Z,64.46
2019-04-14T05:56:01.439Z,63.92
2019-04-14T05:58:30.001Z,63.47
2019-04-14T06:00:58.390Z,62.97
2019-04-14T06:03:27.757Z,62.61
2019-04-14T06:05:56.239Z,62.16
2019-04-14T06:08:24.621Z,62.18
2019-04-14T06:10:53.012Z,61.74
2019-04-14T06:13:21.430Z,61.29
2019-04-14T06:15:50.424Z,60.88
2019-04-14T06:18:18.843Z,61.67
2019-04-14T06:20:47.245Z,61.46
2019-04-14T06:23:15.621Z,61.06
2019-04-14T06:25:44.075Z,61.15
2019-04-14T06:28:14.992Z,60.74
2019-04-14T06:30:48.902Z,61.01
2019-04-14T06:33:37.129Z,60.99
2019-04-14T06:36:12.209Z,60.78
2019-04-14T06:38:44.707Z,60.87
2019-04-14T06:41:16.977Z,60.26
2019-04-14T06:43:49.066Z,60.08
2019-04-14T06:46:16.429Z,60.22
2019-04-14T06:48:44.859Z,60.36
2019-04-14T06:51:13.239Z,60.69
2019-04-14T06:53:41.755Z,60.20
2019-04-14T06:56:10.128Z,59.21
2019-04-14T06:58:38.550Z,59.40
2019-04-14T07:01:06.935Z,58.75
2019-04-14T07:03:35.309Z,59.19
2019-04-14T07:06:03.716Z,59.67
2019-04-14T07:08:32.114Z,59.50
2019-04-14T07:11:00.497Z,58.99
2019-04-14T07:13:28.903Z,59.49
2019-04-14T07:15:57.288Z,59.82
2019-04-14T07:18:25.678Z,59.36
2019-04-14T07:20:54.098Z,60.61
2019-04-14T07:23:22.476Z,59.76
2019-04-14T07:25:50.881Z,59.95
2019-04-14T07:28:19.301Z,59.60
2019-04-14T07:30:49.329Z,59.71
2019-04-14T07:33:19.360Z,59.86
2019-04-14T07:36:04.670Z,60.90
2019-04-14T07:38:48.914Z,60.46
2019-04-14T07:41:34.013Z,60.18
2019-04-14T07:44:04.046Z,60.49
2019-04-14T07:46:37.466Z,60.71
2019-04-14T07:49:07.481Z,60.95
2019-04-14T07:51:55.390Z,61.32
2019-04-14T07:54:41.373Z,60.83
2019-04-14T07:57:11.736Z,61.54
2019-04-14T07:59:41.789Z,61.49
2019-04-14T08:02:11.828Z,61.58
2019-04-14T08:04:41.852Z,60.66
2019-04-14T08:07:11.374Z,60.24
2019-04-14T08:09:39.784Z,60.23
2019-04-14T08:12:09.134Z,60.33
2019-04-14T08:14:37.532Z,61.09
2019-04-14T08:17:05.924Z,61.50
2019-04-14T08:19:34.319Z,61.85
2019-04-14T08:22:02.721Z,60.08
2019-04-14T08:24:31.126Z,60.21
2019-04-14T08:27:00.014Z,58.88
2019-04-14T08:29:28.422Z,58.11
2019-04-14T08:31:56.843Z,59.62
2019-04-14T08:34:25.235Z,58.53
2019-04-14T08:36:56.589Z,59.11
2019-04-14T08:39:24.970Z,58.95
2019-04-14T08:41:57.727Z,59.57
2019-04-14T08:44:33.979Z,58.55
2019-04-14T08:47:16.424Z,58.68
2019-04-14T08:49:49.482Z,58.63
2019-04-14T08:52:28.866Z,60.41
2019-04-14T08:55:02.574Z,60.82
2019-04-14T08:57:49.030Z,60.24
2019-04-14T09:00:19.130Z,58.53
2019-04-14T09:03:02.390Z,57.35
2019-04-14T09:05:34.569Z,57.25
2019-04-14T09:08:20.659Z,56.89
2019-04-14T09:10:56.414Z,56.11
2019-04-14T09:13:24.851Z,56.80
2019-04-14T09:15:53.205Z,57.03
2019-04-14T09:18:21.594Z,57.47
2019-04-14T09:20:52.335Z,57.81
2019-04-14T09:23:20.650Z,58.56
2019-04-14T09:25:49.074Z,58.05
2019-04-14T09:28:17.456Z,58.53
2019-04-14T09:30:47.283Z,58.57
2019-04-14T09:33:16.044Z,58.70
2019-04-14T09:35:45.396Z,58.81
2019-04-14T09:38:13.778Z,58.13
2019-04-14T09:40:43.469Z,57.30
2019-04-14T09:43:15.758Z,56.80
2019-04-14T09:48:32.892Z,58.75
2019-04-14T09:51:05.054Z,58.90
2019-04-14T09:53:31.405Z,59.68
2019-04-14T09:55:59.794Z,59.38
2019-04-14T09:58:29.300Z,58.24
2019-04-14T10:00:58.779Z,57.05
2019-04-14T10:03:27.166Z,56.37
2019-04-14T10:05:57.592Z,56.45
2019-04-14T10:08:25.998Z,56.42
2019-04-14T10:10:54.570Z,56.70
2019-04-14T10:13:22.971Z,56.92
2019-04-14T10:16:03.252Z,57.99
2019-04-14T10:18:31.655Z,58.32
2019-04-14T10:21:00.043Z,57.84
2019-04-14T10:23:29.961Z,59.22
2019-04-14T10:25:58.434Z,58.42
2019-04-14T10:29:00.109Z,57.69
2019-04-14T10:31:12.811Z,58.51
2019-04-14T10:33:41.680Z,58.81
2019-04-14T10:36:10.125Z,58.54
2019-04-14T10:38:38.502Z,59.09
2019-04-14T10:41:06.932Z,59.06
2019-04-14T10:43:39.336Z,59.76
2019-04-14T10:46:07.879Z,60.94
2019-04-14T10:48:36.264Z,59.58
2019-04-14T10:51:05.746Z,60.77
2019-04-14T10:53:34.132Z,59.95
2019-04-14T10:56:02.529Z,60.42
2019-04-14T10:58:40.323Z,60.12
2019-04-14T11:01:08.705Z,59.40
2019-04-14T11:03:37.242Z,60.67
2019-04-14T11:06:12.982Z,60.84
2019-04-14T11:08:41.394Z,61.06
2019-04-14T11:11:09.861Z,60.95
2019-04-14T11:13:38.317Z,62.66
2019-04-14T11:16:06.721Z,62.46
2019-04-14T11:18:35.111Z,63.81
2019-04-14T11:21:06.448Z,63.60
2019-04-14T11:23:34.949Z,62.05
2019-04-14T11:28:44.792Z,62.84
2019-04-14T11:31:14.823Z,63.33
2019-04-14T11:34:01.879Z,63.78
2019-04-14T11:36:34.773Z,65.16
2019-04-14T11:39:10.156Z,64.91
2019-04-14T11:41:38.604Z,64.58
2019-04-14T11:44:11.179Z,63.35
2019-04-14T11:46:46.582Z,62.39
2019-04-14T11:49:15.160Z,62.16
2019-04-14T11:51:54.614Z,62.51
2019-04-14T11:54:13.662Z,62.21
2019-04-14T11:56:42.137Z,61.33
2019-04-14T11:59:17.248Z,62.11
2019-04-14T12:01:53.530Z,62.67
2019-04-14T12:04:23.639Z,61.35
2019-04-14T12:07:05.941Z,62.61
2019-04-14T12:09:39.089Z,64.53
2019-04-14T12:12:12.177Z,65.65
2019-04-14T12:14:40.587Z,65.94
2019-04-14T12:17:08.973Z,67.21
2019-04-14T12:19:37.513Z,69.53
2019-04-14T12:22:08.364Z,69.62
2019-04-14T12:24:36.355Z,68.88
2019-04-14T12:27:04.760Z,66.99
2019-04-14T12:29:34.699Z,67.42
2019-04-14T12:32:06.893Z,65.77
2019-04-14T12:34:36.337Z,65.62
2019-04-14T12:37:05.195Z,66.36
2019-04-14T12:39:33.653Z,66.06
2019-04-14T12:42:21.492Z,64.72
2019-04-14T12:45:10.789Z,65.46
2019-04-14T12:47:47.198Z,65.68
2019-04-14T12:50:20.520Z,65.83
2019-04-14T12:52:49.168Z,66.82
2019-04-14T12:55:17.557Z,67.91
2019-04-14T12:57:47.629Z,67.81
2019-04-14T13:00:23.126Z,68.21
2019-04-14T13:02:53.119Z,68.65
2019-04-14T13:05:21.529Z,67.65
2019-04-14T13:07:49.913Z,67.59
2019-04-14T13:10:19.401Z,66.81
2019-04-14T13:12:47.872Z,66.60
2019-04-14T13:15:17.179Z,66.90
2019-04-14T13:17:45.788Z,67.00
2019-04-14T13:20:17.031Z,66.54
2019-04-14T13:22:45.441Z,65.87
2019-04-14T13:25:19.836Z,65.28
2019-04-14T13:27:54.717Z,63.69
2019-04-14T13:30:28.219Z,64.20
2019-04-14T13:32:56.886Z,63.99
2019-04-14T13:35:25.352Z,63.94
2019-04-14T13:37:57.625Z,64.03
2019-04-14T13:40:26.044Z,63.39
2019-04-14T13:42:54.817Z,63.25
2019-04-14T13:45:29.647Z,63.31
2019-04-14T13:47:57.999Z,63.29
2019-04-14T13:50:27.390Z,62.69
2019-04-14T13:52:58.062Z,63.95
2019-04-14T13:55:26.505Z,63.01
2019-04-14T13:57:57.544Z,62.58
2019-04-14T14:00:27.217Z,61.30
2019-04-14T14:02:55.587Z,61.93
2019-04-14T14:05:24.042Z,60.92
2019-04-14T14:07:52.448Z,60.01
2019-04-14T14:10:20.827Z,60.83
2019-04-14T14:12:59.688Z,61.49
2019-04-14T14:15:38.844Z,63.31
2019-04-14T14:18:28.882Z,64.67
2019-04-14T14:21:05.601Z,65.94
2019-04-14T14:23:35.659Z,65.00
2019-04-14T14:26:05.682Z,64.93
2019-04-14T14:28:34.089Z,64.81
2019-04-14T14:31:02.497Z,64.64
2019-04-14T14:33:30.880Z,64.82
2019-04-14T14:35:59.259Z,64.14
2019-04-14T14:38:31.773Z,63.25
2019-04-14T14:41:01.917Z,63.44
2019-04-14T14:43:32.833Z,63.35
2019-04-14T14:46:08.155Z,63.75
2019-04-14T14:48:52.028Z,63.86
2019-04-14T14:51:34.813Z,62.68
2019-04-14T14:54:15.205Z,63.28
2019-04-14T14:56:52.216Z,62.49
2019-04-14T14:59:20.574Z,62.68
2019-04-14T15:01:49.017Z,62.87
2019-04-14T15:04:19.073Z,62.60
2019-04-14T15:06:47.455Z,62.51
2019-04-14T15:09:15.831Z,62.67
2019-04-14T15:11:44.216Z,62.28
2019-04-14T15:14:12.634Z,62.28
2019-04-14T15:16:41.090Z,61.79
2019-04-14T15:19:09.481Z,62.29
2019-04-14T15:21:37.908Z,62.40
2019-04-14T15:24:09.070Z,61.85
2019-04-14T15:26:41.155Z,62.12
2019-04-14T15:29:09.547Z,61.87
2019-04-14T15:31:39.012Z,61.63
2019-04-14T15:34:07.416Z,61.56
2019-04-14T15:36:39.679Z,61.10
2019-04-14T15:39:10.478Z,60.66
2019-04-14T15:41:38.874Z,61.32
2019-04-14T15:44:07.635Z,60.99
2019-04-14T15:46:38.162Z,61.09
2019-04-14T15:49:09.482Z,60.70
2019-04-14T15:51:37.944Z,61.24
2019-04-14T15:54:07.418Z,61.42
2019-04-14T15:56:55.745Z,61.39
2019-04-14T15:59:42.284Z,60.79
2019-04-14T16:02:13.761Z,61.20
2019-04-14T16:04:43.772Z,61.42
2019-04-14T16:07:13.816Z,60.49
2019-04-14T16:09:51.330Z,60.52
2019-04-14T16:12:21.481Z,61.16
2019-04-14T16:14:54.292Z,61.61
2019-04-14T16:17:36.347Z,62.00
2019-04-14T16:20:07.634Z,61.91
2019-04-14T16:22:39.018Z,62.01
2019-04-14T16:25:07.519Z,60.85
2019-04-14T16:27:53.964Z,61.44
2019-04-14T16:30:38.151Z,61.40
2019-04-14T16:33:14.725Z,61.91
2019-04-14T16:35:48.311Z,61.65
2019-04-14T16:38:16.802Z,63.14
2019-04-14T16:40:46.154Z,62.76
2019-04-14T16:43:14.616Z,62.95
2019-04-14T16:45:43.085Z,63.83
2019-04-14T16:48:12.412Z,63.87
2019-04-14T16:50:41.861Z,63.43
2019-04-14T16:53:23.965Z,63.30
2019-04-14T16:55:57.068Z,63.70
2019-04-14T16:58:29.910Z,64.15
2019-04-14T17:01:12.817Z,63.98
2019-04-14T17:03:41.266Z,64.23
2019-04-14T17:06:09.645Z,64.38
2019-04-14T17:08:38.023Z,65.25
2019-04-14T17:11:06.787Z,65.31
2019-04-14T17:13:39.260Z,65.43
2019-04-14T17:16:15.179Z,65.73
2019-04-14T17:18:45.243Z,66.11
2019-04-14T17:21:15.291Z,66.13
2019-04-14T17:23:46.358Z,66.26
2019-04-14T17:26:37.295Z,66.44
2019-04-14T17:29:07.319Z,66.43
2019-04-14T17:31:46.976Z,67.28
2019-04-14T17:34:32.424Z,67.03
2019-04-14T17:37:10.446Z,67.19
2019-04-14T17:39:58.676Z,67.10
2019-04-14T17:42:41.894Z,67.23
2019-04-14T17:45:28.285Z,66.87
2019-04-14T17:48:12.769Z,66.88
2019-04-14T17:50:45.768Z,67.47
2019-04-14T17:53:38.690Z,67.44
2019-04-14T17:56:13.632Z,67.26
2019-04-14T17:59:01.633Z,67.39
2019-04-14T18:01:42.112Z,67.42
2019-04-14T18:04:12.205Z,67.20
2019-04-14T18:06:56.235Z,66.99
2019-04-14T18:09:46.679Z,66.58
2019-04-14T18:12:27.017Z,66.37
2019-04-14T18:15:03.222Z,66.05
2019-04-14T18:17:33.257Z,66.37
2019-04-14T18:20:06.010Z,66.55
2019-04-14T18:22:34.408Z,66.47
2019-04-14T18:25:05.209Z,66.22
2019-04-14T18:27:36.701Z,65.80
2019-04-14T18:30:26.105Z,65.71
2019-04-14T18:33:01.039Z,65.82
2019-04-14T18:35:31.072Z,66.08
2019-04-14T18:38:03.803Z,65.77
2019-04-14T18:40:33.995Z,65.44
2019-04-14T18:43:04.119Z,65.06
2019-04-14T18:45:36.896Z,65.51
2019-04-14T18:48:13.745Z,64.68
2019-04-14T18:50:52.449Z,64.49
2019-04-14T18:53:37.809Z,64.35
2019-04-14T18:56:12.816Z,64.28
2019-04-14T18:58:42.844Z,64.12
2019-04-14T19:01:19.950Z,63.97
2019-04-14T19:03:48.369Z,64.14
2019-04-14T19:06:16.798Z,63.96
2019-04-14T19:08:46.250Z,63.65
2019-04-14T19:11:25.935Z,63.71
2019-04-14T19:14:05.928Z,63.38
2019-04-14T19:16:47.751Z,63.14
2019-04-14T19:19:18.009Z,63.25
2019-04-14T19:21:47.450Z,63.33
2019-04-14T19:24:15.823Z,62.77
2019-04-14T19:26:44.233Z,62.55
2019-04-14T19:29:13.944Z,62.27
2019-04-14T19:31:42.787Z,61.90
2019-04-14T19:34:11.180Z,61.89
2019-04-14T19:36:39.569Z,61.90
2019-04-14T19:39:14.105Z,61.32
2019-04-14T19:41:42.540Z,61.10
2019-04-14T19:44:11.165Z,61.15
2019-04-14T19:46:39.763Z,60.93
2019-04-14T19:49:08.165Z,61.00
2019-04-14T19:51:37.608Z,60.75
2019-04-14T19:54:06.022Z,59.88
2019-04-14T19:56:34.430Z,59.78
2019-04-14T19:59:02.908Z,59.81
2019-04-14T20:01:31.331Z,59.91
2019-04-14T20:04:03.830Z,58.97
2019-04-14T20:06:32.594Z,58.65
2019-04-14T20:09:02.086Z,58.22
2019-04-14T20:11:31.464Z,57.57
2019-04-14T20:14:02.593Z,57.77
2019-04-14T20:16:38.576Z,58.43
2019-04-14T20:19:11.781Z,58.21
2019-04-14T20:21:42.180Z,58.10
2019-04-14T20:24:33.547Z,58.33
2019-04-14T20:27:08.879Z,58.69
2019-04-14T20:29:39.976Z,58.62
2019-04-14T20:32:19.610Z,58.38
2019-04-14T20:34:47.979Z,58.32
2019-04-14T20:37:16.504Z,58.49
2019-04-14T20:39:44.890Z,58.74
2019-04-14T20:42:14.329Z,59.32
2019-04-14T20:44:44.658Z,59.43
2019-04-14T20:47:13.874Z,59.44
2019-04-14T20:49:42.269Z,59.24
2019-04-14T20:52:18.958Z,59.68
2019-04-14T20:54:47.365Z,59.66
2019-04-14T20:57:16.137Z,60.13
2019-04-14T20:59:44.554Z,60.20
2019-04-14T21:02:23.964Z,60.25
2019-04-14T21:04:54.093Z,60.15
2019-04-14T21:07:40.053Z,59.93
2019-04-14T21:10:19.146Z,59.64
2019-04-14T21:12:56.990Z,60.13
2019-04-14T21:15:33.380Z,60.32
2019-04-14T21:18:03.415Z,60.58
2019-04-14T21:21:02.719Z,60.53
2019-04-14T21:23:42.826Z,60.82
2019-04-14T21:26:12.863Z,60.30
2019-04-14T21:28:42.967Z,60.21
2019-04-14T21:31:14.110Z,59.41
2019-04-14T21:33:44.203Z,58.98
2019-04-14T21:36:26.099Z,59.25
2019-04-14T21:39:22.194Z,58.21
2019-04-14T21:41:50.433Z,58.19
2019-04-14T21:44:18.805Z,58.19
2019-04-14T21:46:49.919Z,58.78
2019-04-14T21:49:24.723Z,58.46
2019-04-14T21:52:14.658Z,57.79
2019-04-14T21:54:47.323Z,56.45
2019-04-14T21:57:48.575Z,56.57
2019-04-14T22:00:23.546Z,56.83
2019-04-14T22:02:59.509Z,54.57
2019-04-14T22:05:44.715Z,53.58
2019-04-14T22:08:31.457Z,53.25
2019-04-14T22:11:06.113Z,52.90
2019-04-14T22:13:34.518Z,51.85
2019-04-14T22:16:07.412Z,50.97
2019-04-14T22:18:37.005Z,51.17
2019-04-14T22:21:05.378Z,51.54
2019-04-14T22:23:37.412Z,51.08
2019-04-14T22:26:08.065Z,51.60
2019-04-14T22:28:39.850Z,51.50
2019-04-14T22:31:08.231Z,51.90
2019-04-14T22:33:39.430Z,51.24
2019-04-14T22:36:10.305Z,51.17
2019-04-14T22:38:38.731Z,50.81
2019-04-14T22:41:07.196Z,50.77
2019-04-14T22:43:35.569Z,51.40
2019-04-14T22:46:12.247Z,50.42
2019-04-14T22:48:40.620Z,50.89
2019-04-14T22:51:15.370Z,50.62
2019-04-14T22:53:46.499Z,50.86
2019-04-14T22:56:14.855Z,50.90
2019-04-14T22:58:43.229Z,50.68
2019-04-14T23:01:22.387Z,51.30
2019-04-14T23:04:02.808Z,50.86
2019-04-14T23:06:38.170Z,50.55
2019-04-14T23:09:25.768Z,50.56
2019-04-14T23:12:07.866Z,50.66
2019-04-14T23:14:44.089Z,50.71
2019-04-14T23:17:28.179Z,51.22
2019-04-14T23:20:08.259Z,51.06
2019-04-14T23:22:45.728Z,51.84
2019-04-14T23:25:18.765Z,52.04
2019-04-14T23:27:48.283Z,52.15
2019-04-14T23:30:23.053Z,52.03
2019-04-14T23:32:51.451Z,51.97
2019-04-14T23:35:19.839Z,51.30
2019-04-14T23:37:48.221Z,51.40
2019-04-14T23:40:16.630Z,51.64
2019-04-14T23:42:45.011Z,51.64
2019-04-14T23:45:14.836Z,51.53
2019-04-14T23:47:43.314Z,51.85
2019-04-14T23:50:12.195Z,51.76
2019-04-14T23:52:40.893Z,52.03
2019-04-14T23:55:12.110Z,52.07
2019-04-14T23:57:40.536Z,52.22
